sensor_id;sensor_type;location;lat;lon;timestamp;temperature;humidity
7206;DHT22;3644;53.480;10.004;2023-02-15T00:01:08;6.90;99.90
7206;DHT22;3644;53.480;10.004;2023-02-15T00:03:34;6.80;99.90
7206;DHT22;3644;53.480;10.004;2023-02-15T00:06:00;6.80;99.90
7206;DHT22;3644;53.480;10.004;2023-02-15T00:08:25;6.90;99.90
7206;DHT22;3644;53.480;10.004;2023-02-15T00:10:51;6.90;99.90
7206;DHT22;3644;53.480;10.004;2023-02-15T00:13:16;6.80;99.90
7206;DHT22;3644;53.480;10.004;2023-02-15T00:15:42;6.80;99.90
7206;DHT22;3644;53.480;10.004;2023-02-15T00:18:07;6.90;99.90
7206;DHT22;3644;53.480;10.004;2023-02-15T00:20:33;6.90;99.90
7206;DHT22;3644;53.480;10.004;2023-02-15T00:22:59;6.90;99.90
7206;DHT22;3644;53.480;10.004;2023-02-15T00:25:24;7.00;99.90
7206;DHT22;3644;53.480;10.004;2023-02-15T00:27:50;7.10;99.90
7206;DHT22;3644;53.480;10.004;2023-02-15T00:30:16;7.10;99.90
7206;DHT22;3644;53.480;10.004;2023-02-15T00:32:41;7.10;99.90
7206;DHT22;3644;53.480;10.004;2023-02-15T00:35:07;7.20;99.90
7206;DHT22;3644;53.480;10.004;2023-02-15T00:37:33;7.20;99.90
7206;DHT22;3644;53.480;10.004;2023-02-15T00:39:59;7.20;99.90
7206;DHT22;3644;53.480;10.004;2023-02-15T00:42:24;7.20;99.90
7206;DHT22;3644;53.480;10.004;2023-02-15T00:44:50;7.10;99.90
7206;DHT22;3644;53.480;10.004;2023-02-15T00:47:15;7.10;99.90
7206;DHT22;3644;53.480;10.004;2023-02-15T00:49:41;7.10;99.90
7206;DHT22;3644;53.480;10.004;2023-02-15T00:52:06;7.20;99.90
7206;DHT22;3644;53.480;10.004;2023-02-15T00:54:32;7.20;99.90
7206;DHT22;3644;53.480;10.004;2023-02-15T00:56:57;7.20;99.90
7206;DHT22;3644;53.480;10.004;2023-02-15T00:59:23;7.10;99.90
7206;DHT22;3644;53.480;10.004;2023-02-15T01:01:48;7.20;99.90
7206;DHT22;3644;53.480;10.004;2023-02-15T01:04:14;7.20;99.90
7206;DHT22;3644;53.480;10.004;2023-02-15T01:06:39;7.20;99.90
7206;DHT22;3644;53.480;10.004;2023-02-15T01:09:05;7.30;99.90
7206;DHT22;3644;53.480;10.004;2023-02-15T01:11:30;7.20;99.90
7206;DHT22;3644;53.480;10.004;2023-02-15T01:13:57;7.30;99.90
7206;DHT22;3644;53.480;10.004;2023-02-15T01:16:24;7.40;99.90
7206;DHT22;3644;53.480;10.004;2023-02-15T01:18:50;7.30;99.90
7206;DHT22;3644;53.480;10.004;2023-02-15T01:21:19;7.30;99.90
7206;DHT22;3644;53.480;10.004;2023-02-15T01:23:45;7.40;99.90
7206;DHT22;3644;53.480;10.004;2023-02-15T01:26:10;7.30;99.90
7206;DHT22;3644;53.480;10.004;2023-02-15T01:28:36;7.30;99.90
7206;DHT22;3644;53.480;10.004;2023-02-15T01:31:10;7.40;99.90
7206;DHT22;3644;53.480;10.004;2023-02-15T01:33:36;7.40;99.90
7206;DHT22;3644;53.480;10.004;2023-02-15T01:36:02;7.30;99.90
7206;DHT22;3644;53.480;10.004;2023-02-15T01:38:28;7.20;99.90
7206;DHT22;3644;53.480;10.004;2023-02-15T01:40:54;7.20;99.90
7206;DHT22;3644;53.480;10.004;2023-02-15T01:43:42;7.30;99.90
7206;DHT22;3644;53.480;10.004;2023-02-15T01:46:08;7.30;99.90
7206;DHT22;3644;53.480;10.004;2023-02-15T01:48:35;7.20;99.90
7206;DHT22;3644;53.480;10.004;2023-02-15T01:51:06;7.30;99.90
7206;DHT22;3644;53.480;10.004;2023-02-15T01:53:42;7.30;99.90
7206;DHT22;3644;53.480;10.004;2023-02-15T01:56:19;7.40;99.90
7206;DHT22;3644;53.480;10.004;2023-02-15T01:58:46;7.40;99.90
7206;DHT22;3644;53.480;10.004;2023-02-15T02:01:13;7.40;99.90
7206;DHT22;3644;53.480;10.004;2023-02-15T02:04:06;7.40;99.90
7206;DHT22;3644;53.480;10.004;2023-02-15T02:06:33;7.50;99.90
7206;DHT22;3644;53.480;10.004;2023-02-15T02:09:00;7.60;99.90
7206;DHT22;3644;53.480;10.004;2023-02-15T02:11:27;7.60;99.90
7206;DHT22;3644;53.480;10.004;2023-02-15T02:13:53;7.60;99.90
7206;DHT22;3644;53.480;10.004;2023-02-15T02:19:17;7.50;99.90
7206;DHT22;3644;53.480;10.004;2023-02-15T02:38:41;7.40;99.90
7206;DHT22;3644;53.480;10.004;2023-02-15T02:43:46;7.30;99.90
7206;DHT22;3644;53.480;10.004;2023-02-15T02:46:19;7.20;99.90
7206;DHT22;3644;53.480;10.004;2023-02-15T02:48:46;7.30;99.90
7206;DHT22;3644;53.480;10.004;2023-02-15T02:51:13;7.20;99.90
7206;DHT22;3644;53.480;10.004;2023-02-15T02:53:39;7.10;99.90
7206;DHT22;3644;53.480;10.004;2023-02-15T02:56:35;7.20;99.90
7206;DHT22;3644;53.480;10.004;2023-02-15T03:01:44;7.20;99.90
7206;DHT22;3644;53.480;10.004;2023-02-15T03:04:21;7.20;99.90
7206;DHT22;3644;53.480;10.004;2023-02-15T03:06:52;7.20;99.90
7206;DHT22;3644;53.480;10.004;2023-02-15T03:09:27;7.20;99.90
7206;DHT22;3644;53.480;10.004;2023-02-15T03:12:00;7.10;99.90
7206;DHT22;3644;53.480;10.004;2023-02-15T03:14:27;7.10;99.90
7206;DHT22;3644;53.480;10.004;2023-02-15T03:16:54;7.20;99.90
7206;DHT22;3644;53.480;10.004;2023-02-15T03:19:32;7.30;99.90
7206;DHT22;3644;53.480;10.004;2023-02-15T03:22:26;7.30;99.90
7206;DHT22;3644;53.480;10.004;2023-02-15T03:24:56;7.30;99.90
7206;DHT22;3644;53.480;10.004;2023-02-15T03:27:30;7.20;99.90
7206;DHT22;3644;53.480;10.004;2023-02-15T03:29:58;7.10;99.90
7206;DHT22;3644;53.480;10.004;2023-02-15T03:32:27;7.10;99.90
7206;DHT22;3644;53.480;10.004;2023-02-15T03:34:53;7.10;99.90
7206;DHT22;3644;53.480;10.004;2023-02-15T03:37:33;7.00;99.90
7206;DHT22;3644;53.480;10.004;2023-02-15T03:40:34;7.00;99.90
7206;DHT22;3644;53.480;10.004;2023-02-15T03:43:30;7.20;99.90
7206;DHT22;3644;53.480;10.004;2023-02-15T03:46:06;7.30;99.90
7206;DHT22;3644;53.480;10.004;2023-02-15T03:48:37;7.30;99.90
7206;DHT22;3644;53.480;10.004;2023-02-15T03:51:09;7.30;99.90
7206;DHT22;3644;53.480;10.004;2023-02-15T03:53:57;7.40;99.90
7206;DHT22;3644;53.480;10.004;2023-02-15T03:56:24;7.30;99.90
7206;DHT22;3644;53.480;10.004;2023-02-15T03:58:50;7.30;99.90
7206;DHT22;3644;53.480;10.004;2023-02-15T04:01:40;7.30;99.90
7206;DHT22;3644;53.480;10.004;2023-02-15T04:04:36;7.20;99.90
7206;DHT22;3644;53.480;10.004;2023-02-15T04:07:04;7.30;99.90
7206;DHT22;3644;53.480;10.004;2023-02-15T04:09:30;7.20;99.90
7206;DHT22;3644;53.480;10.004;2023-02-15T04:12:14;7.30;99.90
7206;DHT22;3644;53.480;10.004;2023-02-15T04:14:39;7.30;99.90
7206;DHT22;3644;53.480;10.004;2023-02-15T04:17:23;7.20;99.90
7206;DHT22;3644;53.480;10.004;2023-02-15T04:19:49;7.30;99.90
7206;DHT22;3644;53.480;10.004;2023-02-15T04:22:33;7.30;99.90
7206;DHT22;3644;53.480;10.004;2023-02-15T04:25:17;7.30;99.90
7206;DHT22;3644;53.480;10.004;2023-02-15T04:27:48;7.30;99.90
7206;DHT22;3644;53.480;10.004;2023-02-15T04:30:15;7.10;99.90
7206;DHT22;3644;53.480;10.004;2023-02-15T04:32:41;7.10;99.90
7206;DHT22;3644;53.480;10.004;2023-02-15T04:35:07;7.00;99.90
7206;DHT22;3644;53.480;10.004;2023-02-15T04:37:34;6.90;99.90
7206;DHT22;3644;53.480;10.004;2023-02-15T04:40:00;6.80;99.90
7206;DHT22;3644;53.480;10.004;2023-02-15T04:42:26;6.90;99.90
7206;DHT22;3644;53.480;10.004;2023-02-15T04:44:52;6.90;99.90
7206;DHT22;3644;53.480;10.004;2023-02-15T04:47:17;6.90;99.90
7206;DHT22;3644;53.480;10.004;2023-02-15T04:49:43;6.90;99.90
7206;DHT22;3644;53.480;10.004;2023-02-15T04:52:08;6.90;99.90
7206;DHT22;3644;53.480;10.004;2023-02-15T04:54:34;6.80;99.90
7206;DHT22;3644;53.480;10.004;2023-02-15T04:56:59;6.80;99.90
7206;DHT22;3644;53.480;10.004;2023-02-15T04:59:25;6.80;99.90
7206;DHT22;3644;53.480;10.004;2023-02-15T05:01:50;6.90;99.90
7206;DHT22;3644;53.480;10.004;2023-02-15T05:04:16;6.80;99.90
7206;DHT22;3644;53.480;10.004;2023-02-15T05:06:41;6.80;99.90
7206;DHT22;3644;53.480;10.004;2023-02-15T05:09:07;6.80;99.90
7206;DHT22;3644;53.480;10.004;2023-02-15T05:11:32;6.70;99.90
7206;DHT22;3644;53.480;10.004;2023-02-15T05:13:58;6.70;99.90
7206;DHT22;3644;53.480;10.004;2023-02-15T05:16:24;6.70;99.90
7206;DHT22;3644;53.480;10.004;2023-02-15T05:18:50;6.70;99.90
7206;DHT22;3644;53.480;10.004;2023-02-15T05:21:16;6.70;99.90
7206;DHT22;3644;53.480;10.004;2023-02-15T05:23:42;6.80;99.90
7206;DHT22;3644;53.480;10.004;2023-02-15T05:26:12;6.80;99.90
7206;DHT22;3644;53.480;10.004;2023-02-15T05:28:57;6.70;99.90
7206;DHT22;3644;53.480;10.004;2023-02-15T05:31:22;6.80;99.90
7206;DHT22;3644;53.480;10.004;2023-02-15T05:33:48;6.80;99.90
7206;DHT22;3644;53.480;10.004;2023-02-15T05:36:14;6.80;99.90
7206;DHT22;3644;53.480;10.004;2023-02-15T05:38:39;6.80;99.90
7206;DHT22;3644;53.480;10.004;2023-02-15T05:41:06;6.70;99.90
7206;DHT22;3644;53.480;10.004;2023-02-15T05:43:32;6.70;99.90
7206;DHT22;3644;53.480;10.004;2023-02-15T05:45:58;6.70;99.90
7206;DHT22;3644;53.480;10.004;2023-02-15T05:48:25;6.70;99.90
7206;DHT22;3644;53.480;10.004;2023-02-15T05:51:20;6.70;99.90
7206;DHT22;3644;53.480;10.004;2023-02-15T05:53:45;6.70;99.90
7206;DHT22;3644;53.480;10.004;2023-02-15T05:56:11;6.70;99.90
7206;DHT22;3644;53.480;10.004;2023-02-15T05:58:39;6.70;99.90
7206;DHT22;3644;53.480;10.004;2023-02-15T06:01:18;6.70;99.90
7206;DHT22;3644;53.480;10.004;2023-02-15T06:03:45;6.60;99.90
7206;DHT22;3644;53.480;10.004;2023-02-15T06:06:11;6.70;99.90
7206;DHT22;3644;53.480;10.004;2023-02-15T06:08:37;6.50;99.90
7206;DHT22;3644;53.480;10.004;2023-02-15T06:11:04;6.60;99.90
7206;DHT22;3644;53.480;10.004;2023-02-15T06:13:29;6.60;99.90
7206;DHT22;3644;53.480;10.004;2023-02-15T06:15:55;6.50;99.90
7206;DHT22;3644;53.480;10.004;2023-02-15T06:18:21;6.50;99.90
7206;DHT22;3644;53.480;10.004;2023-02-15T06:20:47;6.60;99.90
7206;DHT22;3644;53.480;10.004;2023-02-15T06:23:12;6.50;99.90
7206;DHT22;3644;53.480;10.004;2023-02-15T06:25:38;6.50;99.90
7206;DHT22;3644;53.480;10.004;2023-02-15T06:28:04;6.50;99.90
7206;DHT22;3644;53.480;10.004;2023-02-15T06:30:29;6.50;99.90
7206;DHT22;3644;53.480;10.004;2023-02-15T06:32:55;6.50;99.90
7206;DHT22;3644;53.480;10.004;2023-02-15T06:35:20;6.50;99.90
7206;DHT22;3644;53.480;10.004;2023-02-15T06:37:47;6.50;99.90
7206;DHT22;3644;53.480;10.004;2023-02-15T06:40:13;6.40;99.90
7206;DHT22;3644;53.480;10.004;2023-02-15T06:42:38;6.40;99.90
7206;DHT22;3644;53.480;10.004;2023-02-15T06:45:04;6.30;99.90
7206;DHT22;3644;53.480;10.004;2023-02-15T06:47:30;6.30;99.90
7206;DHT22;3644;53.480;10.004;2023-02-15T06:49:55;6.40;99.90
7206;DHT22;3644;53.480;10.004;2023-02-15T06:52:21;6.40;99.90
7206;DHT22;3644;53.480;10.004;2023-02-15T06:54:47;6.50;99.90
7206;DHT22;3644;53.480;10.004;2023-02-15T06:57:12;6.60;99.90
7206;DHT22;3644;53.480;10.004;2023-02-15T06:59:38;6.50;99.90
7206;DHT22;3644;53.480;10.004;2023-02-15T07:02:03;6.30;99.90
7206;DHT22;3644;53.480;10.004;2023-02-15T07:04:29;6.40;99.90
7206;DHT22;3644;53.480;10.004;2023-02-15T07:06:55;6.50;99.90
7206;DHT22;3644;53.480;10.004;2023-02-15T07:09:21;6.40;99.90
7206;DHT22;3644;53.480;10.004;2023-02-15T07:11:47;6.50;99.90
7206;DHT22;3644;53.480;10.004;2023-02-15T07:14:31;6.40;99.90
7206;DHT22;3644;53.480;10.004;2023-02-15T07:16:57;6.50;99.90
7206;DHT22;3644;53.480;10.004;2023-02-15T07:19:22;6.50;99.90
7206;DHT22;3644;53.480;10.004;2023-02-15T07:21:48;6.50;99.90
7206;DHT22;3644;53.480;10.004;2023-02-15T07:24:14;6.50;99.90
7206;DHT22;3644;53.480;10.004;2023-02-15T07:26:39;6.50;99.90
7206;DHT22;3644;53.480;10.004;2023-02-15T07:29:05;6.50;99.90
7206;DHT22;3644;53.480;10.004;2023-02-15T07:31:30;6.60;99.90
7206;DHT22;3644;53.480;10.004;2023-02-15T07:33:56;6.50;99.90
7206;DHT22;3644;53.480;10.004;2023-02-15T07:36:21;6.60;99.90
7206;DHT22;3644;53.480;10.004;2023-02-15T07:38:47;6.50;99.90
7206;DHT22;3644;53.480;10.004;2023-02-15T07:41:14;6.50;99.90
7206;DHT22;3644;53.480;10.004;2023-02-15T07:43:42;6.50;99.90
7206;DHT22;3644;53.480;10.004;2023-02-15T07:46:11;6.40;99.90
7206;DHT22;3644;53.480;10.004;2023-02-15T07:48:38;6.40;99.90
7206;DHT22;3644;53.480;10.004;2023-02-15T07:51:06;6.30;99.90
7206;DHT22;3644;53.480;10.004;2023-02-15T07:53:32;6.30;99.90
7206;DHT22;3644;53.480;10.004;2023-02-15T07:55:59;6.30;99.90
7206;DHT22;3644;53.480;10.004;2023-02-15T07:58:25;6.30;99.90
7206;DHT22;3644;53.480;10.004;2023-02-15T08:01:10;6.40;99.90
7206;DHT22;3644;53.480;10.004;2023-02-15T08:03:36;6.40;99.90
7206;DHT22;3644;53.480;10.004;2023-02-15T08:06:01;6.40;99.90
7206;DHT22;3644;53.480;10.004;2023-02-15T08:08:27;6.30;99.90
7206;DHT22;3644;53.480;10.004;2023-02-15T08:10:59;6.30;99.90
7206;DHT22;3644;53.480;10.004;2023-02-15T08:13:44;6.30;99.90
7206;DHT22;3644;53.480;10.004;2023-02-15T08:16:47;6.40;99.90
7206;DHT22;3644;53.480;10.004;2023-02-15T08:19:21;6.40;99.90
7206;DHT22;3644;53.480;10.004;2023-02-15T08:21:50;6.30;99.90
7206;DHT22;3644;53.480;10.004;2023-02-15T08:24:18;6.40;99.90
7206;DHT22;3644;53.480;10.004;2023-02-15T08:26:44;6.40;99.90
7206;DHT22;3644;53.480;10.004;2023-02-15T08:29:12;6.40;99.90
7206;DHT22;3644;53.480;10.004;2023-02-15T08:31:38;6.30;99.90
7206;DHT22;3644;53.480;10.004;2023-02-15T08:34:06;6.20;99.90
7206;DHT22;3644;53.480;10.004;2023-02-15T08:36:32;6.30;99.90
7206;DHT22;3644;53.480;10.004;2023-02-15T08:38:59;6.30;99.90
7206;DHT22;3644;53.480;10.004;2023-02-15T08:41:28;6.40;99.90
7206;DHT22;3644;53.480;10.004;2023-02-15T08:43:57;6.30;99.90
7206;DHT22;3644;53.480;10.004;2023-02-15T08:46:25;6.40;99.90
7206;DHT22;3644;53.480;10.004;2023-02-15T08:48:51;6.30;99.90
7206;DHT22;3644;53.480;10.004;2023-02-15T08:51:22;6.30;99.90
7206;DHT22;3644;53.480;10.004;2023-02-15T08:53:53;6.20;99.90
7206;DHT22;3644;53.480;10.004;2023-02-15T08:56:22;6.30;99.90
7206;DHT22;3644;53.480;10.004;2023-02-15T08:58:48;6.30;99.90
7206;DHT22;3644;53.480;10.004;2023-02-15T09:01:16;6.40;99.90
7206;DHT22;3644;53.480;10.004;2023-02-15T09:03:44;6.40;99.90
7206;DHT22;3644;53.480;10.004;2023-02-15T09:06:10;6.40;99.90
7206;DHT22;3644;53.480;10.004;2023-02-15T09:08:36;6.40;99.90
7206;DHT22;3644;53.480;10.004;2023-02-15T09:11:14;6.50;99.90
7206;DHT22;3644;53.480;10.004;2023-02-15T09:13:42;6.40;99.90
7206;DHT22;3644;53.480;10.004;2023-02-15T09:16:09;6.50;99.90
7206;DHT22;3644;53.480;10.004;2023-02-15T09:18:37;6.60;99.90
7206;DHT22;3644;53.480;10.004;2023-02-15T09:21:10;6.60;99.90
7206;DHT22;3644;53.480;10.004;2023-02-15T09:23:36;6.70;99.90
7206;DHT22;3644;53.480;10.004;2023-02-15T09:26:10;6.80;99.90
7206;DHT22;3644;53.480;10.004;2023-02-15T09:28:36;6.80;99.90
7206;DHT22;3644;53.480;10.004;2023-02-15T09:33:36;6.80;99.90
7206;DHT22;3644;53.480;10.004;2023-02-15T09:36:03;6.90;99.90
7206;DHT22;3644;53.480;10.004;2023-02-15T09:38:29;6.80;99.90
7206;DHT22;3644;53.480;10.004;2023-02-15T09:41:16;6.80;99.90
7206;DHT22;3644;53.480;10.004;2023-02-15T09:44:04;6.90;99.90
7206;DHT22;3644;53.480;10.004;2023-02-15T09:52:07;7.10;99.90
7206;DHT22;3644;53.480;10.004;2023-02-15T10:00:44;7.30;99.90
7206;DHT22;3644;53.480;10.004;2023-02-15T10:19:50;7.50;99.90
7206;DHT22;3644;53.480;10.004;2023-02-15T10:22:42;7.60;99.90
7206;DHT22;3644;53.480;10.004;2023-02-15T10:25:35;7.60;99.90
7206;DHT22;3644;53.480;10.004;2023-02-15T10:28:23;7.60;99.90
7206;DHT22;3644;53.480;10.004;2023-02-15T10:30:53;7.60;99.90
7206;DHT22;3644;53.480;10.004;2023-02-15T10:33:40;7.60;99.90
7206;DHT22;3644;53.480;10.004;2023-02-15T10:39:06;7.60;99.90
7206;DHT22;3644;53.480;10.004;2023-02-15T10:41:50;7.70;99.90
7206;DHT22;3644;53.480;10.004;2023-02-15T10:44:47;7.60;99.90
7206;DHT22;3644;53.480;10.004;2023-02-15T10:47:56;7.60;99.90
7206;DHT22;3644;53.480;10.004;2023-02-15T10:53:26;7.80;99.90
7206;DHT22;3644;53.480;10.004;2023-02-15T10:56:07;7.90;99.90
7206;DHT22;3644;53.480;10.004;2023-02-15T11:02:27;8.20;99.90
7206;DHT22;3644;53.480;10.004;2023-02-15T11:05:20;8.40;99.90
7206;DHT22;3644;53.480;10.004;2023-02-15T11:07:51;8.40;99.90
7206;DHT22;3644;53.480;10.004;2023-02-15T11:10:30;8.40;99.90
7206;DHT22;3644;53.480;10.004;2023-02-15T11:12:58;8.40;99.90
7206;DHT22;3644;53.480;10.004;2023-02-15T11:15:37;8.50;99.90
7206;DHT22;3644;53.480;10.004;2023-02-15T11:20:59;8.60;99.90
7206;DHT22;3644;53.480;10.004;2023-02-15T11:23:27;8.60;99.90
7206;DHT22;3644;53.480;10.004;2023-02-15T11:25:59;8.60;99.90
7206;DHT22;3644;53.480;10.004;2023-02-15T11:28:39;8.60;99.90
7206;DHT22;3644;53.480;10.004;2023-02-15T11:31:15;8.70;99.90
7206;DHT22;3644;53.480;10.004;2023-02-15T11:33:49;8.70;99.90
7206;DHT22;3644;53.480;10.004;2023-02-15T11:36:22;8.70;99.90
7206;DHT22;3644;53.480;10.004;2023-02-15T11:38:56;8.80;99.90
7206;DHT22;3644;53.480;10.004;2023-02-15T11:41:27;8.90;99.90
7206;DHT22;3644;53.480;10.004;2023-02-15T11:44:06;8.90;99.90
7206;DHT22;3644;53.480;10.004;2023-02-15T11:46:34;9.10;99.90
7206;DHT22;3644;53.480;10.004;2023-02-15T11:48:59;9.20;99.90
7206;DHT22;3644;53.480;10.004;2023-02-15T11:51:25;9.40;99.90
7206;DHT22;3644;53.480;10.004;2023-02-15T11:53:53;9.50;99.90
7206;DHT22;3644;53.480;10.004;2023-02-15T11:56:22;9.30;99.90
7206;DHT22;3644;53.480;10.004;2023-02-15T11:59:02;9.00;99.90
7206;DHT22;3644;53.480;10.004;2023-02-15T12:01:46;9.10;99.90
7206;DHT22;3644;53.480;10.004;2023-02-15T12:04:29;9.30;99.90
7206;DHT22;3644;53.480;10.004;2023-02-15T12:07:04;9.30;99.90
7206;DHT22;3644;53.480;10.004;2023-02-15T12:09:36;9.10;99.90
7206;DHT22;3644;53.480;10.004;2023-02-15T12:14:52;8.50;99.90
7206;DHT22;3644;53.480;10.004;2023-02-15T12:17:20;8.50;99.90
7206;DHT22;3644;53.480;10.004;2023-02-15T12:19:46;8.70;99.90
7206;DHT22;3644;53.480;10.004;2023-02-15T12:22:28;8.60;99.90
7206;DHT22;3644;53.480;10.004;2023-02-15T12:25:00;8.60;99.90
7206;DHT22;3644;53.480;10.004;2023-02-15T12:27:33;8.80;99.90
7206;DHT22;3644;53.480;10.004;2023-02-15T12:30:04;8.90;99.90
7206;DHT22;3644;53.480;10.004;2023-02-15T12:32:35;9.00;99.90
7206;DHT22;3644;53.480;10.004;2023-02-15T12:37:32;9.10;99.90
7206;DHT22;3644;53.480;10.004;2023-02-15T12:40:00;9.10;99.90
7206;DHT22;3644;53.480;10.004;2023-02-15T12:42:39;9.30;99.90
7206;DHT22;3644;53.480;10.004;2023-02-15T12:45:32;9.30;99.90
7206;DHT22;3644;53.480;10.004;2023-02-15T12:48:12;9.30;99.90
7206;DHT22;3644;53.480;10.004;2023-02-15T12:50:40;9.40;99.90
7206;DHT22;3644;53.480;10.004;2023-02-15T12:55:54;9.40;99.90
7206;DHT22;3644;53.480;10.004;2023-02-15T12:58:25;9.30;99.90
7206;DHT22;3644;53.480;10.004;2023-02-15T13:01:09;9.30;99.90
7206;DHT22;3644;53.480;10.004;2023-02-15T13:03:51;9.40;99.90
7206;DHT22;3644;53.480;10.004;2023-02-15T13:06:18;9.40;99.90
7206;DHT22;3644;53.480;10.004;2023-02-15T13:08:50;9.50;99.90
7206;DHT22;3644;53.480;10.004;2023-02-15T13:11:23;9.60;99.90
7206;DHT22;3644;53.480;10.004;2023-02-15T13:13:53;9.50;99.90
7206;DHT22;3644;53.480;10.004;2023-02-15T13:16:39;9.60;99.90
7206;DHT22;3644;53.480;10.004;2023-02-15T13:19:28;9.60;99.90
7206;DHT22;3644;53.480;10.004;2023-02-15T13:21:57;9.70;99.90
7206;DHT22;3644;53.480;10.004;2023-02-15T13:24:39;9.60;99.90
7206;DHT22;3644;53.480;10.004;2023-02-15T13:27:04;9.70;99.90
7206;DHT22;3644;53.480;10.004;2023-02-15T13:29:34;9.70;99.90
7206;DHT22;3644;53.480;10.004;2023-02-15T13:32:10;9.80;99.90
7206;DHT22;3644;53.480;10.004;2023-02-15T13:34:38;9.90;99.90
7206;DHT22;3644;53.480;10.004;2023-02-15T13:43:20;9.90;99.90
7206;DHT22;3644;53.480;10.004;2023-02-15T13:46:23;9.90;99.90
7206;DHT22;3644;53.480;10.004;2023-02-15T13:51:55;10.10;99.90
7206;DHT22;3644;53.480;10.004;2023-02-15T13:54:33;10.00;99.90
7206;DHT22;3644;53.480;10.004;2023-02-15T13:57:18;10.00;99.90
7206;DHT22;3644;53.480;10.004;2023-02-15T13:59:58;10.00;99.90
7206;DHT22;3644;53.480;10.004;2023-02-15T14:05:29;10.00;99.90
7206;DHT22;3644;53.480;10.004;2023-02-15T14:16:24;10.10;99.90
7206;DHT22;3644;53.480;10.004;2023-02-15T14:21:35;10.00;99.90
7206;DHT22;3644;53.480;10.004;2023-02-15T14:24:16;9.90;99.90
7206;DHT22;3644;53.480;10.004;2023-02-15T14:29:41;10.10;99.90
7206;DHT22;3644;53.480;10.004;2023-02-15T14:32:12;10.30;99.90
7206;DHT22;3644;53.480;10.004;2023-02-15T14:34:48;10.20;99.90
7206;DHT22;3644;53.480;10.004;2023-02-15T14:37:22;10.40;99.90
7206;DHT22;3644;53.480;10.004;2023-02-15T14:40:12;10.40;99.90
7206;DHT22;3644;53.480;10.004;2023-02-15T14:45:41;10.40;99.90
7206;DHT22;3644;53.480;10.004;2023-02-15T14:48:13;10.40;99.90
7206;DHT22;3644;53.480;10.004;2023-02-15T14:50:44;10.40;99.90
7206;DHT22;3644;53.480;10.004;2023-02-15T15:01:30;10.20;99.90
7206;DHT22;3644;53.480;10.004;2023-02-15T15:04:01;10.30;99.90
7206;DHT22;3644;53.480;10.004;2023-02-15T15:06:31;10.20;99.90
7206;DHT22;3644;53.480;10.004;2023-02-15T15:09:05;10.30;99.90
7206;DHT22;3644;53.480;10.004;2023-02-15T15:11:42;10.30;99.90
7206;DHT22;3644;53.480;10.004;2023-02-15T15:14:08;10.30;99.90
7206;DHT22;3644;53.480;10.004;2023-02-15T15:19:04;10.30;99.90
7206;DHT22;3644;53.480;10.004;2023-02-15T15:41:32;10.10;99.90
7206;DHT22;3644;53.480;10.004;2023-02-15T15:50:13;10.00;99.90
7206;DHT22;3644;53.480;10.004;2023-02-15T15:52:41;9.90;99.90
7206;DHT22;3644;53.480;10.004;2023-02-15T15:55:19;9.80;99.90
7206;DHT22;3644;53.480;10.004;2023-02-15T15:57:49;9.70;99.90
7206;DHT22;3644;53.480;10.004;2023-02-15T16:00:40;9.70;99.90
7206;DHT22;3644;53.480;10.004;2023-02-15T16:03:15;9.70;99.90
7206;DHT22;3644;53.480;10.004;2023-02-15T16:05:41;9.60;99.90
7206;DHT22;3644;53.480;10.004;2023-02-15T16:08:07;9.50;99.90
7206;DHT22;3644;53.480;10.004;2023-02-15T16:10:33;9.50;99.90
7206;DHT22;3644;53.480;10.004;2023-02-15T16:12:59;9.40;99.90
7206;DHT22;3644;53.480;10.004;2023-02-15T16:15:49;9.40;99.90
7206;DHT22;3644;53.480;10.004;2023-02-15T16:18:19;9.30;99.90
7206;DHT22;3644;53.480;10.004;2023-02-15T16:20:50;9.20;99.90
7206;DHT22;3644;53.480;10.004;2023-02-15T16:26:35;9.20;99.90
7206;DHT22;3644;53.480;10.004;2023-02-15T16:29:14;9.20;99.90
7206;DHT22;3644;53.480;10.004;2023-02-15T16:31:40;9.30;99.90
7206;DHT22;3644;53.480;10.004;2023-02-15T16:34:09;9.40;99.90
7206;DHT22;3644;53.480;10.004;2023-02-15T16:36:41;9.40;99.90
7206;DHT22;3644;53.480;10.004;2023-02-15T16:39:18;9.30;99.90
7206;DHT22;3644;53.480;10.004;2023-02-15T16:41:44;9.10;99.90
7206;DHT22;3644;53.480;10.004;2023-02-15T16:44:19;9.00;99.90
7206;DHT22;3644;53.480;10.004;2023-02-15T16:46:49;9.00;99.90
7206;DHT22;3644;53.480;10.004;2023-02-15T16:49:18;8.80;99.90
7206;DHT22;3644;53.480;10.004;2023-02-15T16:51:56;8.80;99.90
7206;DHT22;3644;53.480;10.004;2023-02-15T16:54:24;8.70;99.90
7206;DHT22;3644;53.480;10.004;2023-02-15T16:56:51;8.50;99.90
7206;DHT22;3644;53.480;10.004;2023-02-15T16:59:39;8.50;99.90
7206;DHT22;3644;53.480;10.004;2023-02-15T17:02:18;8.50;99.90
7206;DHT22;3644;53.480;10.004;2023-02-15T17:04:45;8.50;99.90
7206;DHT22;3644;53.480;10.004;2023-02-15T17:07:18;8.50;99.90
7206;DHT22;3644;53.480;10.004;2023-02-15T17:09:55;8.50;99.90
7206;DHT22;3644;53.480;10.004;2023-02-15T17:12:46;8.40;99.90
7206;DHT22;3644;53.480;10.004;2023-02-15T17:20:33;8.30;99.90
7206;DHT22;3644;53.480;10.004;2023-02-15T17:22:59;8.10;99.90
7206;DHT22;3644;53.480;10.004;2023-02-15T17:25:37;8.30;99.90
7206;DHT22;3644;53.480;10.004;2023-02-15T17:28:05;8.20;99.90
7206;DHT22;3644;53.480;10.004;2023-02-15T17:30:33;8.30;99.90
7206;DHT22;3644;53.480;10.004;2023-02-15T17:33:04;8.20;99.90
7206;DHT22;3644;53.480;10.004;2023-02-15T17:35:31;8.20;99.90
7206;DHT22;3644;53.480;10.004;2023-02-15T17:38:18;8.10;99.90
7206;DHT22;3644;53.480;10.004;2023-02-15T17:40:45;8.10;99.90
7206;DHT22;3644;53.480;10.004;2023-02-15T17:43:10;8.00;99.90
7206;DHT22;3644;53.480;10.004;2023-02-15T17:45:40;7.90;99.90
7206;DHT22;3644;53.480;10.004;2023-02-15T17:48:21;7.90;99.90
7206;DHT22;3644;53.480;10.004;2023-02-15T17:50:48;7.80;99.90
7206;DHT22;3644;53.480;10.004;2023-02-15T17:53:16;7.80;99.90
7206;DHT22;3644;53.480;10.004;2023-02-15T17:55:43;7.80;99.90
7206;DHT22;3644;53.480;10.004;2023-02-15T17:58:11;7.70;99.90
7206;DHT22;3644;53.480;10.004;2023-02-15T18:00:51;7.60;99.90
7206;DHT22;3644;53.480;10.004;2023-02-15T18:03:50;7.60;99.90
7206;DHT22;3644;53.480;10.004;2023-02-15T18:06:36;7.50;99.90
7206;DHT22;3644;53.480;10.004;2023-02-15T18:09:22;7.60;99.90
7206;DHT22;3644;53.480;10.004;2023-02-15T18:12:24;7.50;99.90
7206;DHT22;3644;53.480;10.004;2023-02-15T18:14:52;7.50;99.90
7206;DHT22;3644;53.480;10.004;2023-02-15T18:17:37;7.50;99.90
7206;DHT22;3644;53.480;10.004;2023-02-15T18:20:06;7.40;99.90
7206;DHT22;3644;53.480;10.004;2023-02-15T18:22:35;7.20;99.90
7206;DHT22;3644;53.480;10.004;2023-02-15T18:25:01;7.20;99.90
7206;DHT22;3644;53.480;10.004;2023-02-15T18:27:27;7.30;99.90
7206;DHT22;3644;53.480;10.004;2023-02-15T18:29:52;7.30;99.90
7206;DHT22;3644;53.480;10.004;2023-02-15T18:32:31;7.20;99.90
7206;DHT22;3644;53.480;10.004;2023-02-15T18:35:00;7.10;99.90
7206;DHT22;3644;53.480;10.004;2023-02-15T18:37:29;7.10;99.90
7206;DHT22;3644;53.480;10.004;2023-02-15T18:39:55;7.00;99.90
7206;DHT22;3644;53.480;10.004;2023-02-15T18:42:32;7.00;99.90
7206;DHT22;3644;53.480;10.004;2023-02-15T18:47:47;7.00;99.90
7206;DHT22;3644;53.480;10.004;2023-02-15T18:50:18;7.00;99.90
7206;DHT22;3644;53.480;10.004;2023-02-15T18:52:45;6.90;99.90
7206;DHT22;3644;53.480;10.004;2023-02-15T18:55:23;7.00;99.90
7206;DHT22;3644;53.480;10.004;2023-02-15T18:57:51;7.00;99.90
7206;DHT22;3644;53.480;10.004;2023-02-15T19:00:20;7.00;99.90